Bridel, Luxembourg
Current Conditions -  °F | °C
As of 11:20 AM on Friday 21 Nov 2014 (Local Time) from ELLX Reporting Station
Overcast Overcast  
Wind Chill: 34°   Ceiling: 1200
Heat Index: 39°   Visibility: 2.5mi
Dew Point: 37°   Wind: 8mph
Humidity: 93%   Direction: 60°ENE
Pressure: 30.12"   Gusts: NA
Location:  49.66°N, 6.08°E
Report Text: ELLX 211020Z 06007KT 4000 OVC012 04/03 Q1020 NOSIG
Loading
Personal Weather Stations






























Interactive Weather Map New forecast layout! Learn more

10-Day Weather Forecast

Advertisements
Track Severe Weather on mobile